Time;durP1;ratioP1;P1;durP2;ratioP2;P2;SDS_P1;SDS_P2;PMS_P1;PMS_P2;Temp;Humidity;BMP_temperature;BMP_pressure;BME280_temperature;BME280_humidity;BME280_pressure;Samples;Min_cycle;Max_cycle;Signal;HPM_P1;HPM_P2
2023/03/26 00:01:09;;;;;;;15.90;3.10;;;9.60;99.90;;;;;;5031465;28;20135;-75
2023/03/26 00:03:36;;;;;;;14.23;2.60;;;9.60;99.90;;;;;;5032972;28;20053;-75
2023/03/26 00:06:07;;;;;;;16.38;3.05;;;9.60;99.90;;;;;;5027430;28;20064;-75
2023/03/26 00:08:34;;;;;;;13.37;3.73;;;9.60;99.90;;;;;;5033030;28;20041;-75
2023/03/26 00:11:00;;;;;;;17.20;2.92;;;9.60;99.90;;;;;;5029439;28;20044;-75
2023/03/26 00:13:26;;;;;;;19.52;3.35;;;9.60;99.90;;;;;;5014295;28;20033;-75
2023/03/26 00:15:51;;;;;;;14.85;2.60;;;9.60;99.90;;;;;;5032828;28;20063;-75
2023/03/26 00:18:23;;;;;;;13.23;2.97;;;9.60;99.90;;;;;;5033511;28;20021;-75
2023/03/26 00:20:49;;;;;;;14.50;2.70;;;9.60;99.90;;;;;;5033469;28;20087;-75
2023/03/26 00:23:15;;;;;;;19.08;3.65;;;9.60;99.90;;;;;;5031818;28;20029;-75
2023/03/26 00:25:42;;;;;;;19.98;3.33;;;9.50;99.90;;;;;;5028919;28;20029;-75
2023/03/26 00:28:08;;;;;;;15.93;3.17;;;9.50;99.90;;;;;;5033685;28;20043;-74
2023/03/26 00:30:34;;;;;;;16.65;3.60;;;9.40;99.90;;;;;;5032132;28;20037;-75
2023/03/26 00:33:00;;;;;;;12.55;3.40;;;9.40;99.90;;;;;;5032517;28;20128;-75
2023/03/26 00:35:28;;;;;;;16.42;3.97;;;9.40;99.90;;;;;;5030182;28;21285;-74
2023/03/26 00:37:53;;;;;;;11.20;3.30;;;9.40;99.90;;;;;;5029156;28;20037;-74
2023/03/26 00:40:19;;;;;;;19.10;3.75;;;9.30;99.90;;;;;;5032746;28;20374;-74
2023/03/26 00:42:45;;;;;;;13.07;3.65;;;9.40;99.90;;;;;;5031462;28;20450;-74
2023/03/26 00:45:11;;;;;;;14.35;3.33;;;9.40;99.90;;;;;;5025195;28;20102;-74
2023/03/26 00:47:38;;;;;;;17.92;3.75;;;9.40;99.90;;;;;;5028052;28;20048;-74
2023/03/26 00:50:06;;;;;;;14.35;3.70;;;9.40;99.90;;;;;;5029075;28;20116;-74
2023/03/26 00:52:31;;;;;;;13.75;3.70;;;9.50;99.90;;;;;;5016234;28;20099;-75
2023/03/26 00:54:57;;;;;;;14.52;3.40;;;9.50;99.90;;;;;;5028271;28;20025;-74
2023/03/26 00:57:28;;;;;;;18.70;4.15;;;9.50;99.90;;;;;;5028926;28;20030;-75
2023/03/26 00:59:54;;;;;;;13.57;3.07;;;9.50;99.90;;;;;;5024020;28;20030;-75
2023/03/26 01:02:20;;;;;;;12.05;2.90;;;9.50;99.90;;;;;;5027106;28;20029;-75
2023/03/26 01:05:01;;;;;;;14.65;3.95;;;9.50;99.90;;;;;;5027942;28;20028;-75
2023/03/26 01:07:30;;;;;;;14.70;3.67;;;9.50;99.90;;;;;;5022980;28;20448;-74
2023/03/26 01:09:58;;;;;;;17.92;3.70;;;9.50;99.90;;;;;;5025322;28;20030;-74
2023/03/26 01:12:27;;;;;;;16.17;3.47;;;9.40;99.90;;;;;;5028490;28;20033;-75
2023/03/26 01:14:59;;;;;;;14.48;4.07;;;9.40;99.90;;;;;;5030841;28;20470;-75
2023/03/26 01:17:32;;;;;;;12.95;4.15;;;9.40;99.90;;;;;;5031208;28;20025;-74
2023/03/26 01:20:37;;;;;;;14.30;3.10;;;9.30;99.90;;;;;;5032272;28;20450;-74
2023/03/26 01:23:06;;;;;;;17.88;3.70;;;9.30;99.90;;;;;;4968781;28;20121;-74
2023/03/26 01:25:41;;;;;;;18.13;3.78;;;9.20;99.90;;;;;;5019182;28;20037;-75
2023/03/26 01:28:11;;;;;;;16.40;4.82;;;9.20;99.90;;;;;;5030931;28;20390;-75
2023/03/26 01:30:51;;;;;;;22.25;4.78;;;9.10;99.90;;;;;;5012888;28;20041;-74
2023/03/26 01:33:19;;;;;;;15.52;3.92;;;9.00;99.90;;;;;;5029228;28;20053;-74
2023/03/26 01:35:58;;;;;;;15.10;4.10;;;9.00;99.90;;;;;;5029580;28;20474;-74
2023/03/26 01:38:38;;;;;;;14.57;4.07;;;8.90;99.90;;;;;;5011027;28;20366;-75
2023/03/26 01:41:12;;;;;;;18.23;3.97;;;8.90;99.90;;;;;;5017587;28;20040;-75
2023/03/26 01:44:26;;;;;;;17.30;4.30;;;8.80;99.90;;;;;;5019585;28;20105;-75
2023/03/26 01:46:52;;;;;;;19.23;4.68;;;8.80;99.90;;;;;;5013997;28;20129;-74
2023/03/26 01:49:18;;;;;;;18.88;4.78;;;8.70;99.90;;;;;;5031709;28;20030;-75
2023/03/26 01:51:44;;;;;;;18.27;4.85;;;8.60;99.90;;;;;;5029920;28;20052;-74
2023/03/26 01:54:13;;;;;;;19.30;5.75;;;8.50;99.90;;;;;;5011609;28;20041;-74
2023/03/26 01:57:04;;;;;;;19.95;5.22;;;8.40;99.90;;;;;;5024732;28;20426;-74
2023/03/26 01:59:42;;;;;;;19.95;6.20;;;8.30;99.90;;;;;;5024091;28;20041;-74
2023/03/26 02:02:35;;;;;;;21.40;5.85;;;8.30;99.90;;;;;;5031101;28;20035;-74
2023/03/26 02:05:14;;;;;;;21.55;5.65;;;8.20;99.90;;;;;;5015102;28;20038;-75
2023/03/26 02:07:39;;;;;;;22.35;5.93;;;8.10;99.90;;;;;;5014435;28;20452;-74
2023/03/26 02:10:20;;;;;;;26.88;6.60;;;8.10;99.90;;;;;;5029710;28;20041;-74
2023/03/26 02:12:46;;;;;;;23.27;6.28;;;8.10;99.90;;;;;;5027061;28;20029;-74
2023/03/26 02:15:12;;;;;;;22.95;5.85;;;8.00;99.90;;;;;;5029207;28;20061;-74
2023/03/26 02:17:39;;;;;;;23.02;6.68;;;8.00;99.90;;;;;;5029187;28;20048;-74
2023/03/26 02:20:10;;;;;;;23.15;6.13;;;7.90;99.90;;;;;;5007342;28;20038;-74
2023/03/26 02:22:40;;;;;;;22.83;5.60;;;7.90;99.90;;;;;;5029475;28;20044;-74
2023/03/26 02:25:17;;;;;;;26.75;5.97;;;7.90;99.90;;;;;;5025255;28;20393;-74
2023/03/26 02:27:43;;;;;;;19.90;5.95;;;7.80;99.90;;;;;;5029927;28;20045;-74
2023/03/26 02:30:15;;;;;;;22.55;6.38;;;7.80;99.90;;;;;;5029838;28;20033;-74
2023/03/26 02:32:42;;;;;;;23.38;5.75;;;7.70;99.90;;;;;;5028799;28;20065;-74
2023/03/26 02:35:08;;;;;;;21.98;5.95;;;7.70;99.90;;;;;;5029058;28;20138;-74
2023/03/26 02:37:34;;;;;;;29.00;6.55;;;7.70;99.90;;;;;;5030031;28;20033;-74
2023/03/26 02:40:00;;;;;;;28.30;6.50;;;7.60;99.90;;;;;;5030334;28;20045;-74
2023/03/26 02:42:26;;;;;;;21.33;6.68;;;7.60;99.90;;;;;;5028703;28;20486;-74
2023/03/26 02:44:51;;;;;;;26.10;7.40;;;7.60;99.90;;;;;;5029164;28;20033;-75
2023/03/26 02:47:17;;;;;;;23.33;6.90;;;7.60;99.90;;;;;;5024526;28;20033;-74
2023/03/26 02:49:43;;;;;;;26.95;7.13;;;7.50;99.90;;;;;;5027759;28;20026;-74
2023/03/26 02:52:08;;;;;;;26.85;7.60;;;7.50;99.90;;;;;;5025938;28;20041;-73
2023/03/26 02:54:34;;;;;;;23.05;7.22;;;7.50;99.90;;;;;;5030157;28;20056;-74
2023/03/26 02:57:00;;;;;;;23.35;8.13;;;7.50;99.90;;;;;;5031520;28;20013;-74
2023/03/26 02:59:26;;;;;;;24.10;7.20;;;7.50;99.90;;;;;;5030430;28;20120;-74
2023/03/26 03:01:52;;;;;;;23.77;7.80;;;7.40;99.90;;;;;;5030315;28;20104;-74
2023/03/26 03:04:18;;;;;;;28.60;9.15;;;7.40;99.90;;;;;;5028719;28;20036;-74
2023/03/26 03:06:43;;;;;;;31.67;9.20;;;7.30;99.90;;;;;;5030537;28;20022;-74
2023/03/26 03:09:10;;;;;;;30.92;10.77;;;7.30;99.90;;;;;;5029954;28;20448;-73
2023/03/26 03:11:37;;;;;;;33.42;12.45;;;7.40;99.90;;;;;;5030462;28;20061;-74
2023/03/26 03:14:02;;;;;;;32.55;10.55;;;7.40;99.90;;;;;;5027382;28;20434;-74
2023/03/26 03:16:29;;;;;;;36.20;12.50;;;7.40;99.90;;;;;;5030083;28;20064;-74
2023/03/26 03:18:55;;;;;;;38.50;13.77;;;7.50;99.90;;;;;;5032648;28;20049;-74
2023/03/26 03:21:26;;;;;;;38.05;14.45;;;7.60;99.90;;;;;;5035124;28;20404;-74
2023/03/26 03:23:55;;;;;;;41.80;14.93;;;7.70;99.90;;;;;;5033650;28;20032;-74
2023/03/26 03:26:26;;;;;;;43.03;14.85;;;7.70;99.90;;;;;;5030852;28;20494;-74
2023/03/26 03:28:53;;;;;;;40.55;16.15;;;7.80;99.90;;;;;;5032612;28;20394;-74
2023/03/26 03:31:20;;;;;;;44.28;15.63;;;7.80;99.90;;;;;;5027714;28;20029;-74
2023/03/26 03:33:46;;;;;;;36.67;14.52;;;7.90;99.90;;;;;;5033743;28;20120;-74
2023/03/26 03:36:13;;;;;;;40.30;14.60;;;7.90;99.90;;;;;;5033736;28;20112;-74
2023/03/26 03:38:40;;;;;;;40.63;14.30;;;8.00;99.90;;;;;;5034076;28;20432;-75
2023/03/26 03:41:07;;;;;;;37.67;15.00;;;8.10;99.90;;;;;;5032339;28;20030;-74
2023/03/26 03:43:33;;;;;;;38.95;14.48;;;8.10;99.90;;;;;;5034210;28;20095;-74
2023/03/26 03:45:59;;;;;;;36.22;15.23;;;8.10;99.90;;;;;;5033329;28;20061;-75
2023/03/26 03:48:26;;;;;;;35.38;15.07;;;8.20;99.90;;;;;;5033890;28;20079;-74
2023/03/26 03:50:55;;;;;;;34.65;14.02;;;8.20;99.90;;;;;;5033899;28;20033;-74
2023/03/26 03:53:24;;;;;;;38.33;12.93;;;8.20;99.90;;;;;;5033323;28;20060;-74
2023/03/26 03:55:52;;;;;;;38.17;13.88;;;8.20;99.90;;;;;;5022649;28;20034;-74
2023/03/26 03:58:23;;;;;;;37.97;16.13;;;8.20;99.90;;;;;;5031873;28;20075;-74
2023/03/26 04:00:52;;;;;;;32.78;13.60;;;8.20;99.90;;;;;;5032551;28;20021;-74
2023/03/26 04:03:18;;;;;;;37.15;14.15;;;8.20;99.90;;;;;;5032473;28;20053;-74
2023/03/26 04:05:53;;;;;;;37.47;15.13;;;8.10;99.90;;;;;;5032732;28;20037;-75
2023/03/26 04:08:19;;;;;;;39.28;15.68;;;8.10;99.90;;;;;;5030337;28;20072;-75
2023/03/26 04:10:45;;;;;;;41.38;15.60;;;8.10;99.90;;;;;;5019526;28;20025;-75
2023/03/26 04:13:13;;;;;;;37.60;15.70;;;8.10;99.90;;;;;;5022327;28;20132;-75
2023/03/26 04:15:39;;;;;;;36.78;15.88;;;8.10;99.90;;;;;;5032337;28;20041;-75
2023/03/26 04:18:09;;;;;;;37.38;15.25;;;8.20;99.90;;;;;;5032958;28;20033;-75
2023/03/26 04:20:37;;;;;;;42.13;16.13;;;8.20;99.90;;;;;;5033769;28;20068;-75
2023/03/26 04:23:03;;;;;;;38.42;15.77;;;8.20;99.90;;;;;;5032998;28;20057;-74
2023/03/26 04:25:29;;;;;;;32.17;15.02;;;8.20;99.90;;;;;;5032524;28;20026;-75
2023/03/26 04:27:57;;;;;;;35.47;14.60;;;8.30;99.90;;;;;;5032387;28;20445;-75
2023/03/26 04:30:23;;;;;;;37.13;14.85;;;8.30;99.90;;;;;;5027455;28;20036;-75
2023/03/26 04:32:48;;;;;;;33.85;13.55;;;8.30;99.90;;;;;;5029187;28;20049;-74
2023/03/26 04:35:15;;;;;;;36.70;12.93;;;8.40;99.90;;;;;;5032118;28;20076;-75
2023/03/26 04:37:43;;;;;;;33.55;12.55;;;8.40;99.90;;;;;;5032009;28;20049;-75
2023/03/26 04:40:19;;;;;;;31.45;12.93;;;8.40;99.90;;;;;;5032973;28;20424;-74
2023/03/26 04:42:47;;;;;;;29.75;13.02;;;8.50;99.90;;;;;;5019149;28;20029;-74
2023/03/26 04:45:16;;;;;;;30.52;11.02;;;8.50;99.90;;;;;;5030221;28;20038;-75
2023/03/26 04:47:42;;;;;;;32.28;12.15;;;8.50;99.90;;;;;;5023227;28;20033;-75
2023/03/26 04:50:10;;;;;;;31.25;11.93;;;8.50;99.90;;;;;;5032697;28;20029;-75
2023/03/26 04:52:36;;;;;;;34.28;11.85;;;8.50;99.90;;;;;;5022400;28;20121;-75
2023/03/26 04:55:02;;;;;;;27.90;11.25;;;8.50;99.90;;;;;;5030868;28;20033;-75
2023/03/26 04:57:38;;;;;;;26.83;11.05;;;8.60;99.90;;;;;;5023346;28;20034;-75
2023/03/26 05:00:14;;;;;;;32.92;11.35;;;8.70;99.90;;;;;;5029318;28;20026;-75
2023/03/26 05:02:44;;;;;;;31.77;10.02;;;8.70;99.90;;;;;;5031719;28;20090;-74
2023/03/26 05:05:10;;;;;;;27.45;9.90;;;8.70;99.90;;;;;;5027686;28;20033;-75
2023/03/26 05:07:36;;;;;;;25.92;9.70;;;8.80;99.90;;;;;;5031321;28;20041;-74
2023/03/26 05:10:03;;;;;;;24.52;9.50;;;8.80;99.90;;;;;;5019932;28;20356;-75
2023/03/26 05:12:29;;;;;;;27.38;9.45;;;8.90;99.90;;;;;;5020548;28;20397;-75
2023/03/26 05:14:55;;;;;;;23.45;9.13;;;8.90;99.90;;;;;;5032061;28;20033;-75
2023/03/26 05:17:22;;;;;;;22.95;8.57;;;8.90;99.90;;;;;;5029295;28;20087;-75
2023/03/26 05:19:48;;;;;;;24.70;9.13;;;9.00;99.90;;;;;;5031962;28;20438;-75
2023/03/26 05:22:13;;;;;;;24.60;8.10;;;8.90;99.90;;;;;;5028788;28;20033;-75
2023/03/26 05:24:39;;;;;;;23.88;8.23;;;9.00;99.90;;;;;;5031795;28;20025;-74
2023/03/26 05:27:05;;;;;;;18.50;7.60;;;9.00;99.90;;;;;;5030630;28;20029;-75
2023/03/26 05:29:30;;;;;;;24.83;8.48;;;9.00;99.90;;;;;;5031789;28;20042;-75
2023/03/26 05:31:56;;;;;;;24.45;10.05;;;9.00;99.90;;;;;;5031836;28;20445;-75
2023/03/26 05:34:25;;;;;;;28.52;10.23;;;9.00;99.90;;;;;;5032170;28;20029;-74
2023/03/26 05:36:50;;;;;;;27.38;11.45;;;9.00;99.90;;;;;;5030248;28;20037;-75
2023/03/26 05:39:16;;;;;;;30.88;13.05;;;9.10;99.90;;;;;;5031835;28;20029;-74
2023/03/26 05:41:41;;;;;;;42.88;14.13;;;9.00;99.90;;;;;;5028264;28;20036;-75
2023/03/26 05:44:07;;;;;;;38.05;15.27;;;9.10;99.90;;;;;;5032351;28;20029;-75
2023/03/26 05:46:33;;;;;;;38.25;15.68;;;9.10;99.90;;;;;;5026915;28;20036;-74
2023/03/26 05:48:58;;;;;;;46.45;18.25;;;9.10;99.90;;;;;;5032156;28;20052;-75
2023/03/26 05:51:24;;;;;;;53.13;18.60;;;9.10;99.90;;;;;;5025556;28;20588;-74
2023/03/26 05:53:49;;;;;;;146.70;25.92;;;9.10;99.90;;;;;;5025156;28;20032;-74
2023/03/26 05:56:15;;;;;;;43.47;18.65;;;9.10;99.90;;;;;;5027457;28;20053;-75
2023/03/26 05:58:41;;;;;;;38.35;17.85;;;9.10;99.90;;;;;;5030312;28;20117;-75
2023/03/26 06:01:09;;;;;;;45.80;18.30;;;9.10;99.90;;;;;;5031531;28;20029;-75
2023/03/26 06:03:38;;;;;;;124.72;22.27;;;9.10;99.90;;;;;;5031913;28;20029;-74
2023/03/26 06:06:14;;;;;;;41.70;16.73;;;9.10;99.90;;;;;;5031758;28;20033;-74
2023/03/26 06:08:45;;;;;;;38.42;14.73;;;9.20;99.90;;;;;;5030983;28;20393;-74
2023/03/26 06:11:11;;;;;;;34.00;12.52;;;9.20;99.90;;;;;;5027044;28;20495;-74
2023/03/26 06:13:37;;;;;;;32.47;12.05;;;9.10;99.90;;;;;;5023135;28;20116;-73
2023/03/26 06:16:04;;;;;;;62.15;13.90;;;9.20;99.90;;;;;;5028736;28;20032;-74
2023/03/26 06:18:30;;;;;;;38.35;9.63;;;9.20;99.90;;;;;;5031574;28;20029;-74
2023/03/26 06:20:55;;;;;;;30.55;9.65;;;9.20;99.90;;;;;;5029848;28;20032;-73
2023/03/26 06:23:22;;;;;;;28.95;9.38;;;9.20;99.90;;;;;;5020729;28;20029;-74
2023/03/26 06:25:47;;;;;;;25.35;8.73;;;9.20;99.90;;;;;;5030902;28;20030;-74
2023/03/26 06:28:14;;;;;;;24.25;8.77;;;9.20;99.90;;;;;;5029445;28;20103;-74
2023/03/26 06:30:40;;;;;;;24.85;8.50;;;9.20;99.90;;;;;;5031274;28;20029;-73
2023/03/26 06:33:05;;;;;;;25.55;8.45;;;9.20;99.90;;;;;;5030508;28;20049;-74
2023/03/26 06:35:31;;;;;;;29.13;9.65;;;9.30;99.90;;;;;;5031574;28;20026;-74
2023/03/26 06:37:57;;;;;;;27.00;7.72;;;9.20;99.90;;;;;;5031321;28;20100;-73
2023/03/26 06:40:23;;;;;;;18.77;7.28;;;9.30;99.90;;;;;;5029883;28;20466;-74
2023/03/26 06:42:50;;;;;;;182.40;21.10;;;9.30;99.90;;;;;;5016068;28;20132;-73
2023/03/26 06:45:16;;;;;;;22.25;6.82;;;9.30;99.90;;;;;;5029619;28;20022;-74
2023/03/26 06:47:42;;;;;;;23.23;6.03;;;9.30;99.90;;;;;;5028943;28;20049;-73
2023/03/26 06:50:09;;;;;;;21.42;6.10;;;9.30;99.90;;;;;;5029238;28;20025;-73
2023/03/26 06:52:34;;;;;;;20.92;5.82;;;9.40;99.90;;;;;;5030107;28;20056;-76
2023/03/26 06:55:00;;;;;;;20.13;5.22;;;9.30;99.90;;;;;;5017016;28;20076;-75
2023/03/26 06:57:26;;;;;;;18.23;5.20;;;9.40;99.90;;;;;;5032542;28;20087;-74
2023/03/26 06:59:51;;;;;;;19.58;5.72;;;9.40;99.90;;;;;;5034557;28;20053;-74
2023/03/26 07:02:17;;;;;;;20.27;5.20;;;9.40;99.90;;;;;;5033209;28;20026;-74
2023/03/26 07:04:42;;;;;;;20.48;5.38;;;9.40;99.90;;;;;;5031246;28;20113;-74
2023/03/26 07:07:08;;;;;;;16.20;4.35;;;9.50;99.90;;;;;;5032903;28;20029;-74
2023/03/26 07:09:34;;;;;;;18.70;4.88;;;9.50;99.90;;;;;;5033011;28;20080;-74
2023/03/26 07:12:00;;;;;;;18.35;4.30;;;9.60;99.90;;;;;;5024384;28;20108;-74
2023/03/26 07:14:31;;;;;;;21.48;4.57;;;9.70;99.90;;;;;;5031361;28;20045;-74
2023/03/26 07:16:57;;;;;;;21.02;4.75;;;9.80;99.90;;;;;;5031041;28;20061;-74
2023/03/26 07:19:23;;;;;;;20.27;5.35;;;9.80;99.90;;;;;;5022504;28;20080;-74
2023/03/26 07:21:49;;;;;;;17.48;4.55;;;9.80;99.90;;;;;;5023914;28;20026;-74
2023/03/26 07:24:15;;;;;;;19.45;4.68;;;9.90;99.90;;;;;;5028980;28;20459;-74
2023/03/26 07:27:02;;;;;;;13.05;4.10;;;9.90;99.90;;;;;;5029597;28;20069;-73
2023/03/26 07:29:48;;;;;;;16.52;3.97;;;9.80;99.90;;;;;;5017657;28;20053;-74
2023/03/26 07:32:25;;;;;;;15.98;4.13;;;9.90;99.90;;;;;;5027600;28;20104;-73
2023/03/26 07:35:03;;;;;;;18.70;4.57;;;9.80;99.90;;;;;;5019377;28;20038;-75
2023/03/26 07:37:51;;;;;;;22.45;4.60;;;9.80;99.90;;;;;;5025055;28;20088;-75
2023/03/26 07:40:41;;;;;;;16.25;3.72;;;9.80;99.90;;;;;;5033338;28;20232;-73
2023/03/26 07:43:18;;;;;;;19.42;3.55;;;9.80;99.90;;;;;;5021829;28;20029;-73
2023/03/26 07:45:44;;;;;;;15.07;3.20;;;9.90;99.90;;;;;;5033455;28;20465;-73
2023/03/26 07:48:24;;;;;;;16.73;3.75;;;9.90;99.90;;;;;;5030223;28;20037;-74
2023/03/26 07:50:50;;;;;;;12.57;2.88;;;9.90;99.90;;;;;;5033045;28;20033;-75
2023/03/26 07:53:16;;;;;;;17.25;3.13;;;10.00;99.90;;;;;;5015006;28;20061;-75
2023/03/26 07:56:07;;;;;;;16.88;3.10;;;10.10;99.90;;;;;;5032753;28;20396;-74
2023/03/26 07:58:39;;;;;;;19.88;3.22;;;10.10;99.90;;;;;;5019005;28;20542;-73
2023/03/26 08:01:09;;;;;;;;;;;10.10;99.90;;;;;;5020007;28;20120;-73
2023/03/26 08:04:06;;;;;;;17.30;3.10;;;10.20;99.90;;;;;;5032754;28;19909;-73
2023/03/26 08:06:37;;;;;;;18.85;3.60;;;10.20;99.90;;;;;;5028677;28;20069;-73
2023/03/26 08:09:31;;;;;;;19.75;3.92;;;10.20;99.90;;;;;;5033759;28;20045;-73
2023/03/26 08:12:03;;;;;;;17.90;4.05;;;10.20;99.90;;;;;;5022321;28;20048;-73
2023/03/26 08:14:47;;;;;;;16.67;3.58;;;10.20;99.90;;;;;;5032097;28;20061;-73
2023/03/26 08:17:36;;;;;;;22.60;3.55;;;10.20;99.90;;;;;;5029058;28;20389;-73
2023/03/26 08:20:21;;;;;;;20.30;3.30;;;10.20;99.90;;;;;;5028299;28;20033;-74
2023/03/26 08:22:54;;;;;;;18.40;3.05;;;10.10;99.90;;;;;;5028793;28;20191;-75
2023/03/26 08:25:31;;;;;;;16.38;2.80;;;10.10;99.90;;;;;;5029583;28;20037;-75
2023/03/26 08:28:20;;;;;;;15.98;3.40;;;10.10;99.90;;;;;;5032226;28;20140;-73
2023/03/26 08:30:53;;;;;;;15.63;3.13;;;10.10;99.90;;;;;;5022702;28;20045;-74
2023/03/26 08:33:50;;;;;;;15.30;3.67;;;10.10;99.90;;;;;;5033174;28;20045;-74
2023/03/26 08:36:15;;;;;;;21.65;3.28;;;10.10;99.90;;;;;;5032146;28;20063;-74
2023/03/26 08:38:41;;;;;;;22.75;3.25;;;10.10;99.90;;;;;;5031109;28;20048;-74
2023/03/26 08:41:10;;;;;;;12.15;3.03;;;10.20;99.90;;;;;;5031991;28;20022;-74
2023/03/26 08:43:47;;;;;;;14.55;2.70;;;10.20;99.90;;;;;;5033060;28;20030;-74
2023/03/26 08:46:14;;;;;;;10.07;2.83;;;10.20;99.90;;;;;;5032440;28;20108;-74
2023/03/26 08:49:21;;;;;;;20.05;3.97;;;10.20;99.90;;;;;;5031471;28;20064;-75
2023/03/26 08:51:46;;;;;;;18.45;3.30;;;10.20;99.90;;;;;;5024814;28;20087;-74
2023/03/26 08:54:52;;;;;;;15.05;2.70;;;10.20;99.90;;;;;;5032550;28;20022;-74
2023/03/26 08:57:39;;;;;;;14.73;2.70;;;10.10;99.90;;;;;;5021866;28;20041;-74
2023/03/26 09:00:38;;;;;;;13.70;2.70;;;10.10;99.90;;;;;;5020424;28;20034;-74
2023/03/26 09:03:12;;;;;;;20.23;4.07;;;10.10;99.90;;;;;;5019362;28;20053;-74
2023/03/26 09:05:50;;;;;;;21.55;3.83;;;10.10;99.90;;;;;;5032975;28;20025;-74
2023/03/26 09:09:04;;;;;;;15.98;2.65;;;10.20;99.90;;;;;;5016832;28;20033;-74
2023/03/26 09:11:47;;;;;;;23.30;3.22;;;10.40;99.90;;;;;;4992468;28;20038;-74
2023/03/26 09:14:25;;;;;;;19.60;4.38;;;10.60;99.90;;;;;;5030806;28;20044;-74
2023/03/26 09:17:28;;;;;;;15.05;3.22;;;10.90;99.90;;;;;;5027574;28;20083;-74
2023/03/26 09:20:11;;;;;;;17.98;2.80;;;11.10;99.90;;;;;;5019418;28;20080;-74
2023/03/26 09:23:04;;;;;;;20.70;3.45;;;11.10;99.90;;;;;;5031821;28;20240;-74
2023/03/26 09:25:55;;;;;;;15.43;2.50;;;11.20;99.90;;;;;;5032151;28;20111;-74
2023/03/26 09:28:52;;;;;;;19.35;3.13;;;11.40;99.90;;;;;;5031743;28;20041;-74
2023/03/26 09:31:56;;;;;;;21.92;4.00;;;11.40;99.90;;;;;;5001715;28;20041;-74
2023/03/26 09:34:29;;;;;;;25.73;5.00;;;11.30;99.90;;;;;;5032347;28;20068;-74
2023/03/26 09:37:25;;;;;;;12.82;2.72;;;11.30;99.90;;;;;;5028395;28;20119;-74
2023/03/26 09:40:21;;;;;;;18.00;2.92;;;11.20;99.90;;;;;;5022278;28;20383;-74
2023/03/26 09:42:52;;;;;;;14.85;3.47;;;11.10;99.90;;;;;;5022737;28;20470;-74
2023/03/26 09:45:55;;;;;;;14.73;2.97;;;11.10;99.90;;;;;;5032057;28;20067;-74
2023/03/26 09:48:39;;;;;;;18.88;2.58;;;11.00;99.90;;;;;;5015511;28;20107;-75
2023/03/26 09:51:11;;;;;;;18.45;2.95;;;11.00;99.90;;;;;;5030545;28;20033;-75
2023/03/26 09:53:46;;;;;;;17.83;3.17;;;11.00;99.90;;;;;;5031605;28;20035;-73
2023/03/26 09:56:49;;;;;;;16.25;2.40;;;11.00;99.90;;;;;;5030783;28;20037;-73
2023/03/26 09:59:50;;;;;;;18.90;3.25;;;10.90;99.90;;;;;;5031975;28;20037;-73
2023/03/26 10:02:19;;;;;;;21.58;3.03;;;11.00;99.90;;;;;;5027518;28;20099;-73
2023/03/26 10:04:58;;;;;;;18.15;3.50;;;11.00;99.90;;;;;;5016702;28;20044;-74
2023/03/26 10:07:58;;;;;;;18.85;3.30;;;11.10;99.90;;;;;;5013854;28;20121;-74
2023/03/26 10:10:41;;;;;;;19.85;3.10;;;11.30;99.90;;;;;;5013967;28;20489;-74
2023/03/26 10:13:27;;;;;;;16.48;3.00;;;11.40;99.90;;;;;;5018499;28;20046;-74
2023/03/26 10:16:05;;;;;;;17.88;3.40;;;11.50;99.90;;;;;;5031047;28;20033;-73
2023/03/26 10:18:48;;;;;;;16.45;2.75;;;11.70;99.90;;;;;;5028985;28;20036;-74
2023/03/26 10:21:49;;;;;;;17.40;2.90;;;11.70;99.90;;;;;;5017743;28;20116;-73
2023/03/26 10:24:33;;;;;;;12.82;2.60;;;11.70;99.90;;;;;;5006738;28;20036;-73
2023/03/26 10:27:12;;;;;;;13.90;2.78;;;11.50;99.90;;;;;;5014875;28;20084;-73
2023/03/26 10:30:00;;;;;;;12.07;2.75;;;11.60;99.90;;;;;;5026130;28;20409;-73
2023/03/26 10:32:45;;;;;;;17.35;2.88;;;11.60;99.90;;;;;;5031226;28;20404;-73
2023/03/26 10:35:25;;;;;;;11.82;2.75;;;11.70;99.90;;;;;;5031352;28;20072;-73
2023/03/26 10:38:08;;;;;;;16.40;2.55;;;11.80;99.90;;;;;;5033428;28;20060;-74
2023/03/26 10:40:35;;;;;;;;;;;12.00;99.90;;;;;;5036000;28;20029;-74
2023/03/26 10:43:09;;;;;;;12.57;2.15;;;12.00;99.90;;;;;;5022599;28;19908;-73
2023/03/26 10:45:57;;;;;;;16.80;2.33;;;12.10;99.90;;;;;;5035262;28;20027;-73
2023/03/26 10:48:34;;;;;;;18.35;2.58;;;12.30;99.90;;;;;;5021898;28;20124;-73
2023/03/26 10:51:26;;;;;;;8.40;1.70;;;12.60;99.90;;;;;;5004062;28;20072;-73
2023/03/26 10:54:13;;;;;;;15.43;2.83;;;12.60;99.90;;;;;;5028700;28;20056;-73
2023/03/26 10:56:44;;;;;;;13.00;2.63;;;12.40;99.90;;;;;;5030480;28;20031;-73
2023/03/26 10:59:15;;;;;;;15.45;2.70;;;12.50;99.90;;;;;;5009627;28;20518;-73
2023/03/26 11:02:00;;;;;;;14.50;2.53;;;12.70;99.90;;;;;;5026199;28;20032;-73
2023/03/26 11:04:53;;;;;;;16.08;2.22;;;12.80;99.90;;;;;;5034354;28;20100;-73
2023/03/26 11:07:26;;;;;;;;;;;13.00;99.90;;;;;;5032142;28;20029;-73
2023/03/26 11:10:10;;;;;;;11.88;2.80;;;12.90;99.90;;;;;;5024447;28;19920;-73
2023/03/26 11:13:02;;;;;;;14.52;2.40;;;12.70;99.90;;;;;;5029501;28;20021;-73
2023/03/26 11:15:39;;;;;;;;;;;12.60;99.90;;;;;;5030529;28;20040;-73
2023/03/26 11:18:41;;;;;;;9.77;2.20;;;12.50;99.90;;;;;;5033842;28;19916;-73
2023/03/26 11:21:07;;;;;;;;;;;12.60;99.90;;;;;;5022065;28;20037;-73
2023/03/26 11:23:35;;;;;;;13.05;2.28;;;12.80;99.90;;;;;;5032645;28;20032;-73
2023/03/26 11:26:17;;;;;;;13.02;2.10;;;13.00;99.90;;;;;;5029179;28;20037;-72
2023/03/26 11:29:36;;;;;;;14.63;2.70;;;13.10;99.90;;;;;;5028746;28;20076;-73
2023/03/26 11:32:20;;;;;;;14.95;2.60;;;13.00;99.90;;;;;;4953670;28;20333;-72
2023/03/26 11:35:31;;;;;;;13.93;2.78;;;13.20;99.90;;;;;;4955742;28;20038;-73
2023/03/26 11:38:02;;;;;;;11.20;2.03;;;13.30;99.90;;;;;;5026136;28;20049;-73
2023/03/26 11:40:40;;;;;;;12.48;2.63;;;13.50;99.90;;;;;;5033611;28;20053;-73
2023/03/26 11:43:09;;;;;;;10.80;2.22;;;13.60;99.90;;;;;;5030613;28;20428;-73
2023/03/26 11:45:43;;;;;;;15.93;2.70;;;13.70;99.90;;;;;;5034317;28;20022;-73
2023/03/26 11:48:21;;;;;;;10.23;2.28;;;13.90;99.90;;;;;;5033159;28;20397;-73
2023/03/26 11:50:51;;;;;;;11.05;2.38;;;14.10;99.90;;;;;;5019215;28;20041;-72
2023/03/26 11:53:21;;;;;;;8.77;2.20;;;13.90;99.90;;;;;;5033436;28;20076;-72
2023/03/26 11:55:58;;;;;;;9.13;2.33;;;13.90;99.90;;;;;;5034444;28;20030;-72
2023/03/26 11:58:33;;;;;;;5.10;1.50;;;13.90;99.90;;;;;;5034594;28;20040;-72
2023/03/26 12:01:03;;;;;;;12.25;3.15;;;13.90;99.90;;;;;;5033119;28;20025;-72
2023/03/26 12:03:29;;;;;;;8.32;1.65;;;13.90;99.90;;;;;;5029708;28;20362;-72
2023/03/26 12:05:58;;;;;;;15.63;2.45;;;13.80;99.90;;;;;;5027184;28;20033;-72
2023/03/26 12:08:33;;;;;;;11.70;2.10;;;13.60;99.90;;;;;;5031754;28;20049;-72
2023/03/26 12:11:07;;;;;;;9.30;2.65;;;13.50;99.90;;;;;;5032438;28;20397;-73
2023/03/26 12:13:37;;;;;;;12.18;2.72;;;13.40;99.90;;;;;;5032044;28;20057;-72
2023/03/26 12:16:11;;;;;;;9.63;2.25;;;13.50;99.90;;;;;;5033209;28;20069;-72
2023/03/26 12:18:39;;;;;;;9.35;1.67;;;13.60;99.90;;;;;;5031496;28;20105;-72
2023/03/26 12:21:11;;;;;;;13.95;2.30;;;13.80;99.90;;;;;;5031260;28;20068;-72
2023/03/26 12:23:49;;;;;;;13.48;3.08;;;14.00;99.90;;;;;;5031982;28;20030;-72
2023/03/26 12:26:19;;;;;;;11.90;1.75;;;14.20;99.70;;;;;;5028555;28;20612;-72
2023/03/26 12:28:49;;;;;;;6.22;1.25;;;14.50;99.30;;;;;;5031961;28;20041;-72
2023/03/26 12:31:19;;;;;;;9.13;1.90;;;14.70;98.70;;;;;;5031761;28;20087;-72
2023/03/26 12:34:14;;;;;;;13.75;2.53;;;14.60;98.70;;;;;;5032236;28;20057;-72
2023/03/26 12:36:51;;;;;;;11.73;2.05;;;14.50;98.70;;;;;;5030281;28;20757;-72
2023/03/26 12:39:38;;;;;;;11.85;1.70;;;14.50;98.60;;;;;;5030008;28;20527;-72
2023/03/26 12:42:22;;;;;;;7.35;1.88;;;14.40;98.60;;;;;;5031161;28;20026;-72
2023/03/26 12:44:51;;;;;;;10.40;1.70;;;14.40;98.70;;;;;;5029612;28;20033;-72
2023/03/26 12:47:26;;;;;;;10.85;2.03;;;14.40;98.80;;;;;;5029454;28;20167;-72
2023/03/26 12:49:53;;;;;;;7.60;1.70;;;14.60;99.00;;;;;;5030130;28;20044;-72
2023/03/26 12:52:40;;;;;;;8.65;1.95;;;14.80;98.50;;;;;;5030532;28;20116;-72
2023/03/26 12:55:05;;;;;;;8.77;1.75;;;15.00;98.20;;;;;;5031603;28;20030;-72
2023/03/26 12:58:12;;;;;;;10.55;2.20;;;15.10;97.70;;;;;;5028995;28;20168;-72
2023/03/26 13:00:54;;;;;;;7.10;1.25;;;14.90;97.90;;;;;;5026657;28;20479;-72
2023/03/26 13:03:33;;;;;;;3.08;1.13;;;14.70;98.00;;;;;;5030940;28;20140;-72
2023/03/26 13:06:40;;;;;;;13.45;2.35;;;14.50;98.10;;;;;;5030816;28;20068;-72
2023/03/26 13:09:32;;;;;;;11.23;1.48;;;14.50;98.90;;;;;;5027385;28;20045;-72
2023/03/26 13:12:13;;;;;;;8.68;1.65;;;14.60;98.10;;;;;;5027002;28;20041;-72
2023/03/26 13:14:55;;;;;;;5.28;1.27;;;14.50;97.80;;;;;;5009866;28;20037;-72
2023/03/26 13:17:32;;;;;;;8.77;1.48;;;14.30;98.40;;;;;;5013855;28;20457;-71